Time;durP1;ratioP1;P1;durP2;ratioP2;P2;SDS_P1;SDS_P2;PMS_P1;PMS_P2;Temp;Humidity;BMP_temperature;BMP_pressure;BME280_temperature;BME280_humidity;BME280_pressure;Samples;Min_cycle;Max_cycle;Signal;HPM_P1;HPM_P2
2023/10/27 00:01:46;;;;;;;29.20;20.63;;;;;;;10.39;100.00;99134.78;4999460;28;20026;-49
2023/10/27 00:04:11;;;;;;;31.08;20.38;;;;;;;10.39;100.00;99134.78;4995550;28;20023;-49
2023/10/27 00:06:36;;;;;;;30.88;21.70;;;;;;;10.40;100.00;99136.44;4998675;28;20080;-49
2023/10/27 00:09:02;;;;;;;28.38;20.30;;;;;;;10.40;100.00;99133.78;4997861;28;20027;-49
2023/10/27 00:11:28;;;;;;;28.77;22.35;;;;;;;10.39;100.00;99133.94;5006469;28;20476;-49
2023/10/27 00:13:54;;;;;;;31.23;21.77;;;;;;;10.38;100.00;99130.47;5000826;28;20419;-50
2023/10/27 00:16:19;;;;;;;30.02;21.48;;;;;;;10.39;100.00;99132.13;4995683;28;20070;-49
2023/10/27 00:18:45;;;;;;;30.00;21.83;;;;;;;10.40;100.00;99133.78;4998820;28;20429;-49
2023/10/27 00:21:10;;;;;;;30.20;22.38;;;;;;;10.38;100.00;99133.13;5001501;28;20456;-49
2023/10/27 00:23:35;;;;;;;27.95;21.88;;;;;;;10.36;100.00;99122.66;4997686;28;20030;-49
2023/10/27 00:26:01;;;;;;;30.38;21.83;;;;;;;10.38;100.00;99125.16;4999029;28;20029;-50
2023/10/27 00:28:27;;;;;;;32.03;22.33;;;;;;;10.33;100.00;99128.28;5000918;28;20033;-48
2023/10/27 00:30:52;;;;;;;33.38;22.60;;;;;;;10.36;100.00;99122.66;5000034;28;20357;-49
2023/10/27 00:33:17;;;;;;;32.90;22.83;;;;;;;10.36;100.00;99124.50;5001616;28;20022;-49
2023/10/27 00:35:42;;;;;;;31.77;21.90;;;;;;;10.36;100.00;99116.53;5001825;28;20086;-48
2023/10/27 00:38:08;;;;;;;30.65;22.73;;;;;;;10.38;100.00;99113.72;5002277;28;20037;-49
2023/10/27 00:40:33;;;;;;;31.88;23.83;;;;;;;10.36;100.00;99117.34;4997231;28;20026;-50
2023/10/27 00:43:03;;;;;;;38.42;23.98;;;;;;;10.37;100.00;99112.88;4997784;28;20038;-49
2023/10/27 00:45:28;;;;;;;34.63;24.50;;;;;;;10.34;100.00;99106.09;5001403;28;20056;-49
2023/10/27 00:47:53;;;;;;;32.92;22.95;;;;;;;10.35;100.00;99112.22;4999067;28;20257;-48
2023/10/27 00:50:19;;;;;;;38.22;23.67;;;;;;;10.35;100.00;99117.53;4998262;28;20022;-49
2023/10/27 00:52:44;;;;;;;32.63;24.23;;;;;;;10.33;100.00;99112.38;5001772;28;20151;-49
2023/10/27 00:55:11;;;;;;;33.03;24.13;;;;;;;10.34;100.00;99107.88;4999148;28;20106;-48
2023/10/27 00:57:37;;;;;;;40.50;25.33;;;;;;;10.31;100.00;99110.84;4998490;28;21021;-49
2023/10/27 01:00:04;;;;;;;32.88;24.67;;;;;;;10.32;100.00;99107.22;4994747;28;20067;-50
2023/10/27 01:02:29;;;;;;;38.00;24.30;;;;;;;10.34;100.00;99105.22;5003671;28;20045;-50
2023/10/27 01:04:54;;;;;;;32.97;24.00;;;;;;;10.33;100.00;99107.06;5006654;28;20030;-50
2023/10/27 01:07:21;;;;;;;35.03;24.20;;;;;;;10.35;100.00;99098.94;4999740;28;20034;-49
2023/10/27 01:09:47;;;;;;;32.42;23.02;;;;;;;10.33;100.00;99099.09;4998085;28;20226;-50
2023/10/27 01:12:12;;;;;;;29.95;22.45;;;;;;;10.36;100.00;99100.63;4998485;28;20105;-49
2023/10/27 01:14:38;;;;;;;30.25;21.73;;;;;;;10.36;100.00;99100.63;5002619;28;20142;-49
2023/10/27 01:17:03;;;;;;;33.17;22.45;;;;;;;10.35;100.00;99101.59;4995206;28;20019;-50
2023/10/27 01:19:28;;;;;;;29.45;21.88;;;;;;;10.36;100.00;99098.78;5001767;28;20037;-50
2023/10/27 01:21:54;;;;;;;34.78;21.33;;;;;;;10.35;100.00;99094.44;4997736;28;20099;-49
2023/10/27 01:24:19;;;;;;;31.88;21.23;;;;;;;10.35;100.00;99102.41;4995940;28;20026;-48
2023/10/27 01:26:45;;;;;;;33.95;21.02;;;;;;;10.37;100.00;99094.31;4995354;28;20132;-49
2023/10/27 01:29:10;;;;;;;34.35;21.88;;;;;;;10.36;100.00;99092.66;5000154;28;20026;-48
2023/10/27 01:31:35;;;;;;;31.48;21.15;;;;;;;10.35;100.00;99099.75;4996993;28;20023;-49
2023/10/27 01:34:00;;;;;;;30.00;20.83;;;;;;;10.34;100.00;99099.91;4998960;28;20034;-50
2023/10/27 01:36:26;;;;;;;30.77;20.30;;;;;;;10.34;100.00;99099.91;4996833;28;20499;-53
2023/10/27 01:38:51;;;;;;;32.15;19.27;;;;;;;10.35;100.00;99101.59;4992668;28;20030;-50
2023/10/27 01:41:17;;;;;;;26.95;19.23;;;;;;;10.34;100.00;99094.59;4997570;28;20041;-51
2023/10/27 01:43:42;;;;;;;32.40;17.42;;;;;;;10.36;100.00;99090.00;4998124;28;20049;-49
2023/10/27 01:46:07;;;;;;;27.88;17.45;;;;;;;10.39;100.00;99097.63;4997301;28;20126;-51
2023/10/27 01:48:33;;;;;;;28.55;16.13;;;;;;;10.40;100.00;99090.50;4999173;28;20022;-49
2023/10/27 01:50:58;;;;;;;27.45;16.70;;;;;;;10.40;100.00;99088.69;4996967;28;20042;-52
2023/10/27 01:53:23;;;;;;;29.48;16.55;;;;;;;10.42;100.00;99091.16;4998796;28;20014;-49
2023/10/27 01:55:48;;;;;;;25.00;16.58;;;;;;;10.41;100.00;99086.84;4997965;28;20022;-49
2023/10/27 01:58:14;;;;;;;26.13;16.48;;;;;;;10.42;100.00;99089.34;4996785;28;20038;-48
2023/10/27 02:00:39;;;;;;;27.10;16.88;;;;;;;10.42;100.00;99088.53;4995661;28;20592;-50
2023/10/27 02:03:04;;;;;;;24.73;15.43;;;;;;;10.42;100.00;99089.34;4999501;28;20384;-49
2023/10/27 02:05:30;;;;;;;25.92;15.75;;;;;;;10.43;100.00;99083.06;5002928;28;20026;-48
2023/10/27 02:07:55;;;;;;;23.30;15.38;;;;;;;10.42;100.00;99083.22;5004387;28;20142;-49
2023/10/27 02:10:20;;;;;;;26.15;14.10;;;;;;;10.41;100.00;99084.19;4999454;28;20108;-49
2023/10/27 02:12:46;;;;;;;22.85;13.15;;;;;;;10.40;100.00;99072.75;4998088;28;20418;-48
2023/10/27 02:15:12;;;;;;;24.10;13.52;;;;;;;10.38;100.00;99072.09;4999364;28;20038;-48
2023/10/27 02:17:39;;;;;;;21.73;13.40;;;;;;;10.39;100.00;99067.59;4997835;28;20022;-49
2023/10/27 02:20:05;;;;;;;22.33;13.85;;;;;;;10.39;100.00;99076.38;4994478;28;20065;-49
2023/10/27 02:22:31;;;;;;;22.23;13.98;;;;;;;10.39;100.00;99065.78;4995669;28;20049;-48
2023/10/27 02:24:56;;;;;;;25.20;13.23;;;;;;;10.40;100.00;99061.31;4996111;28;20026;-49
2023/10/27 02:27:21;;;;;;;20.15;12.73;;;;;;;10.41;100.00;99055.84;4997644;28;20109;-48
2023/10/27 02:29:47;;;;;;;23.98;12.57;;;;;;;10.41;100.00;99057.66;4998267;28;20109;-50
2023/10/27 02:32:12;;;;;;;23.45;13.15;;;;;;;10.41;100.00;99060.31;4998406;28;20518;-50
2023/10/27 02:34:37;;;;;;;20.10;12.05;;;;;;;10.40;100.00;99056.81;4996620;28;20026;-51
2023/10/27 02:37:03;;;;;;;22.05;12.32;;;;;;;10.39;100.00;99064.94;4996414;28;20067;-52
2023/10/27 02:39:28;;;;;;;23.55;11.73;;;;;;;10.38;100.00;99053.50;4998150;28;20576;-50
2023/10/27 02:41:53;;;;;;;24.75;13.23;;;;;;;10.36;100.00;99058.97;4997923;28;20044;-50
2023/10/27 02:44:18;;;;;;;21.45;11.63;;;;;;;10.36;100.00;99056.31;5020844;28;20030;-51
2023/10/27 02:46:44;;;;;;;23.70;12.38;;;;;;;10.36;100.00;99053.66;4996934;28;20049;-50
2023/10/27 02:49:09;;;;;;;22.27;11.73;;;;;;;10.37;100.00;99051.84;4992928;28;20030;-49
2023/10/27 02:51:34;;;;;;;24.92;11.27;;;;;;;10.35;100.00;99048.53;4993118;28;20026;-50
2023/10/27 02:54:00;;;;;;;17.40;10.65;;;;;;;10.34;100.00;99047.69;4996273;28;20073;-51
2023/10/27 02:56:25;;;;;;;17.17;10.13;;;;;;;10.33;100.00;99048.69;5000475;28;20490;-50
2023/10/27 02:58:51;;;;;;;18.88;9.75;;;;;;;10.33;100.00;99045.19;4997038;28;20362;-51
2023/10/27 03:01:17;;;;;;;18.83;9.38;;;;;;;10.32;100.00;99038.22;4998245;28;20105;-50
2023/10/27 03:03:45;;;;;;;18.15;9.50;;;;;;;10.32;100.00;99036.38;4993400;28;20033;-50
2023/10/27 03:06:11;;;;;;;23.55;10.50;;;;;;;10.32;100.00;99035.56;4997994;28;20489;-50
2023/10/27 03:08:39;;;;;;;14.65;8.88;;;;;;;10.30;100.00;99038.34;4996877;28;20046;-50
2023/10/27 03:11:04;;;;;;;18.40;10.00;;;;;;;10.31;100.00;99036.53;4997840;28;20025;-50
2023/10/27 03:13:31;;;;;;;15.27;8.60;;;;;;;10.32;100.00;99035.56;4995717;28;20448;-50
2023/10/27 03:16:00;;;;;;;19.65;9.50;;;;;;;10.32;100.00;99039.03;4997066;28;20369;-52
2023/10/27 03:18:26;;;;;;;18.30;9.07;;;;;;;10.31;100.00;99042.69;4999410;28;20403;-49
2023/10/27 03:20:59;;;;;;;18.20;8.80;;;;;;;10.30;100.00;99035.69;5001468;28;20125;-50
2023/10/27 03:23:25;;;;;;;17.73;8.43;;;;;;;10.28;100.00;99031.56;4998683;28;20027;-50
2023/10/27 03:25:51;;;;;;;15.88;7.88;;;;;;;10.27;100.00;99029.88;5001345;28;20030;-50
2023/10/27 03:28:16;;;;;;;19.05;8.40;;;;;;;10.27;100.00;99045.81;4999258;28;20031;-50
2023/10/27 03:30:42;;;;;;;19.63;9.27;;;;;;;10.26;100.00;99036.16;5003635;28;20415;-51
2023/10/27 03:33:08;;;;;;;17.52;8.40;;;;;;;10.27;100.00;99037.84;5000289;28;20035;-51
2023/10/27 03:35:34;;;;;;;20.42;8.70;;;;;;;10.25;100.00;99038.00;5001404;28;20065;-51
2023/10/27 03:38:00;;;;;;;18.60;8.15;;;;;;;10.24;100.00;99030.19;4998162;28;20431;-50
2023/10/27 03:40:25;;;;;;;21.90;8.52;;;;;;;10.23;100.00;99024.06;4999437;28;20083;-50
2023/10/27 03:42:50;;;;;;;17.73;7.70;;;;;;;10.25;100.00;99034.53;4999609;28;20034;-50
2023/10/27 03:45:16;;;;;;;17.55;7.57;;;;;;;10.24;100.00;99024.88;4996941;28;20499;-50
2023/10/27 03:47:41;;;;;;;16.35;7.95;;;;;;;10.24;100.00;99033.69;5001200;28;20027;-50
2023/10/27 03:50:06;;;;;;;12.88;7.20;;;;;;;10.25;100.00;99031.88;5001478;28;20388;-50
2023/10/27 03:52:32;;;;;;;16.50;7.88;;;;;;;10.24;100.00;99023.09;4997890;28;20038;-50
2023/10/27 03:54:58;;;;;;;16.42;7.03;;;;;;;10.23;100.00;99026.72;5006001;28;20137;-49
2023/10/27 03:57:23;;;;;;;13.75;7.20;;;;;;;10.23;100.00;99025.91;5005348;28;20114;-50
2023/10/27 03:59:49;;;;;;;17.00;7.20;;;;;;;10.23;100.00;99023.25;4996859;28;20046;-49
2023/10/27 04:02:15;;;;;;;14.35;7.32;;;;;;;10.24;100.00;99023.09;4998755;28;20087;-50
2023/10/27 04:04:41;;;;;;;13.25;6.68;;;;;;;10.20;100.00;99027.03;5001566;28;20049;-50
2023/10/27 04:07:06;;;;;;;15.50;6.82;;;;;;;10.19;100.00;99022.72;4996502;28;20060;-51
2023/10/27 04:09:32;;;;;;;14.40;7.57;;;;;;;10.18;100.00;99024.53;5002019;28;20507;-50
2023/10/27 04:11:57;;;;;;;11.85;6.85;;;;;;;10.19;100.00;99022.72;5003635;28;20380;-51
2023/10/27 04:14:22;;;;;;;14.30;6.97;;;;;;;10.19;100.00;99023.56;5000375;28;20443;-50
2023/10/27 04:16:47;;;;;;;14.00;6.45;;;;;;;10.18;100.00;99016.59;5000404;28;20075;-51
2023/10/27 04:19:13;;;;;;;12.85;6.47;;;;;;;10.18;100.00;99021.88;5001756;28;20052;-50
2023/10/27 04:21:38;;;;;;;16.60;6.82;;;;;;;10.19;100.00;99026.22;5000138;28;20034;-49
2023/10/27 04:24:04;;;;;;;14.40;6.63;;;;;;;10.20;100.00;99024.38;5002914;28;20022;-50
2023/10/27 04:26:30;;;;;;;14.90;6.60;;;;;;;10.20;100.00;99027.03;4998073;28;20026;-50
2023/10/27 04:28:55;;;;;;;13.40;6.43;;;;;;;10.19;100.00;99028.88;4996213;28;20542;-50
2023/10/27 04:31:21;;;;;;;15.77;7.07;;;;;;;10.16;100.00;99031.00;4996876;28;20037;-50
2023/10/27 04:33:48;;;;;;;14.90;6.82;;;;;;;10.19;100.00;99020.06;4993996;28;20030;-51
2023/10/27 04:36:14;;;;;;;16.25;7.38;;;;;;;10.19;100.00;99023.56;5001751;28;20106;-51
2023/10/27 04:38:40;;;;;;;14.50;7.22;;;;;;;10.19;100.00;99022.72;4997198;28;20022;-52
2023/10/27 04:41:05;;;;;;;13.30;6.40;;;;;;;10.21;100.00;99031.38;5000759;28;20053;-52
2023/10/27 04:43:31;;;;;;;13.38;6.57;;;;;;;10.21;100.00;99023.41;5001369;28;20029;-52
2023/10/27 04:45:56;;;;;;;15.27;6.57;;;;;;;10.21;100.00;99034.00;4995877;28;20042;-50
2023/10/27 04:48:22;;;;;;;13.93;6.88;;;;;;;10.22;100.00;99027.69;5000051;28;20496;-50
2023/10/27 04:50:56;;;;;;;14.02;7.43;;;;;;;10.23;100.00;99028.56;4997159;28;20094;-49
2023/10/27 04:53:21;;;;;;;14.52;7.22;;;;;;;10.23;100.00;99025.91;4997038;28;20473;-50
2023/10/27 04:55:47;;;;;;;15.82;6.97;;;;;;;10.21;100.00;99020.75;4999187;28;20090;-50
2023/10/27 04:58:12;;;;;;;13.52;6.68;;;;;;;10.22;100.00;99021.56;5002042;28;20026;-52
2023/10/27 05:00:37;;;;;;;12.85;6.53;;;;;;;10.23;100.00;99017.94;4997760;28;20038;-50
2023/10/27 05:03:02;;;;;;;15.82;7.32;;;;;;;10.24;100.00;99016.94;4996014;28;20385;-50
2023/10/27 05:05:28;;;;;;;16.95;7.63;;;;;;;10.23;100.00;99016.09;4999785;28;20080;-50
2023/10/27 05:07:55;;;;;;;11.27;6.82;;;;;;;10.23;100.00;99013.44;4999216;28;20026;-50
2023/10/27 05:10:21;;;;;;;15.77;7.13;;;;;;;10.22;100.00;99009.13;4996872;28;20101;-50
2023/10/27 05:12:46;;;;;;;12.95;6.95;;;;;;;10.24;100.00;99009.81;5000003;28;20121;-49
2023/10/27 05:15:11;;;;;;;11.65;6.75;;;;;;;10.23;100.00;99005.50;5006222;28;20503;-50
2023/10/27 05:17:36;;;;;;;12.80;6.82;;;;;;;10.22;100.00;99001.16;4997009;28;20014;-50
2023/10/27 05:20:03;;;;;;;12.88;6.93;;;;;;;10.23;100.00;99005.50;4997199;28;20026;-50
2023/10/27 05:22:30;;;;;;;13.23;6.95;;;;;;;10.23;100.00;99002.84;4997431;28;20577;-52
2023/10/27 05:24:57;;;;;;;11.50;6.57;;;;;;;10.24;100.00;99006.31;4997737;28;20101;-50
2023/10/27 05:27:23;;;;;;;15.48;7.20;;;;;;;10.22;100.00;99005.66;5002940;28;20037;-50
2023/10/27 05:29:48;;;;;;;14.95;7.00;;;;;;;10.23;100.00;99005.50;4994836;28;20454;-50
2023/10/27 05:32:15;;;;;;;17.38;6.80;;;;;;;10.23;100.00;99002.03;5013290;28;20030;-51
2023/10/27 05:34:40;;;;;;;14.65;7.30;;;;;;;10.22;100.00;99000.34;5007066;28;20441;-51
2023/10/27 05:37:05;;;;;;;16.55;6.97;;;;;;;10.24;100.00;99001.00;5000498;28;20018;-51
2023/10/27 05:39:31;;;;;;;14.20;6.70;;;;;;;10.24;100.00;99001.88;5017640;28;20034;-51
2023/10/27 05:41:56;;;;;;;15.13;6.75;;;;;;;10.23;100.00;99002.84;4999029;28;20061;-50
2023/10/27 05:44:21;;;;;;;9.82;7.28;;;;;;;10.25;100.00;98997.38;4995863;28;20493;-52
2023/10/27 05:46:47;;;;;;;15.95;7.97;;;;;;;10.24;100.00;98999.22;4998934;28;20052;-50
2023/10/27 05:49:12;;;;;;;13.95;7.85;;;;;;;10.23;100.00;99000.19;4996451;28;20549;-52
2023/10/27 05:51:38;;;;;;;12.40;7.20;;;;;;;10.24;100.00;99006.31;4995041;28;20025;-53
2023/10/27 05:54:04;;;;;;;14.40;8.43;;;;;;;10.24;100.00;98999.22;4993887;28;20023;-52
2023/10/27 05:56:30;;;;;;;11.00;7.70;;;;;;;10.25;100.00;98998.19;4995124;28;20029;-53
2023/10/27 05:58:56;;;;;;;11.10;7.78;;;;;;;10.25;100.00;98998.19;4994911;28;20026;-50
2023/10/27 06:01:21;;;;;;;11.15;7.80;;;;;;;10.26;100.00;99004.31;4999087;28;20475;-49
2023/10/27 06:03:47;;;;;;;9.30;7.47;;;;;;;10.25;100.00;98998.19;4998492;28;20041;-48
2023/10/27 06:06:12;;;;;;;11.70;8.20;;;;;;;10.27;100.00;99000.69;4998304;28;20030;-47
2023/10/27 06:08:44;;;;;;;12.50;8.02;;;;;;;10.28;100.00;99010.31;4988818;28;20684;-53
2023/10/27 06:11:11;;;;;;;11.13;8.57;;;;;;;10.38;100.00;99004.91;4998400;28;20068;-49
2023/10/27 06:13:36;;;;;;;9.70;8.30;;;;;;;10.43;100.00;99008.75;4995376;28;20025;-50
2023/10/27 06:16:02;;;;;;;10.55;8.80;;;;;;;10.54;100.00;99013.75;4999760;28;20034;-51
2023/10/27 06:18:27;;;;;;;9.60;8.05;;;;;;;10.61;100.00;99011.28;4998199;28;20034;-49
2023/10/27 06:20:53;;;;;;;10.00;8.10;;;;;;;10.68;100.00;99012.28;5000205;28;20038;-51
2023/10/27 06:23:18;;;;;;;10.18;7.38;;;;;;;10.76;100.00;99013.28;4991237;28;20034;-48
2023/10/27 06:25:43;;;;;;;9.68;7.03;;;;;;;10.76;100.00;99011.47;4995768;28;20038;-49
2023/10/27 06:28:09;;;;;;;10.88;7.03;;;;;;;10.72;100.00;99016.28;4998643;28;20048;-48
2023/10/27 06:30:34;;;;;;;9.30;6.78;;;;;;;10.65;100.00;99022.41;4995109;28;20026;-48
2023/10/27 06:32:59;;;;;;;10.68;7.38;;;;;;;10.60;100.00;99017.56;4996739;28;20026;-48
2023/10/27 06:35:25;;;;;;;10.75;7.43;;;;;;;10.54;100.00;99021.72;4997647;28;20120;-48
2023/10/27 06:37:50;;;;;;;9.90;7.72;;;;;;;10.48;100.00;99026.84;4995490;28;20172;-48
2023/10/27 06:40:16;;;;;;;10.63;7.63;;;;;;;10.44;100.00;99021.03;4996360;28;20503;-49
2023/10/27 06:42:41;;;;;;;12.90;7.60;;;;;;;10.42;100.00;99023.00;4995059;28;20026;-50
2023/10/27 06:45:08;;;;;;;13.25;7.88;;;;;;;10.36;100.00;99026.31;4995070;28;20067;-49
2023/10/27 06:47:35;;;;;;;10.55;7.68;;;;;;;10.33;100.00;99026.63;4996104;28;20026;-50
2023/10/27 06:50:02;;;;;;;9.32;7.78;;;;;;;10.30;100.00;99024.25;4998275;28;20080;-49
2023/10/27 06:52:28;;;;;;;8.73;7.82;;;;;;;10.29;100.00;99030.53;4997507;28;20575;-49
2023/10/27 06:54:53;;;;;;;11.75;8.35;;;;;;;10.24;100.00;99027.53;4999983;28;20108;-49
2023/10/27 06:57:18;;;;;;;11.50;8.02;;;;;;;10.24;100.00;99027.53;4997544;28;20149;-50
2023/10/27 06:59:44;;;;;;;11.65;8.02;;;;;;;10.21;100.00;99034.00;5000899;28;20046;-50
2023/10/27 07:02:09;;;;;;;18.35;9.32;;;;;;;10.19;100.00;99036.81;4999515;28;20477;-49
2023/10/27 07:04:34;;;;;;;9.95;7.57;;;;;;;10.18;100.00;99043.09;5002386;28;20086;-50
2023/10/27 07:06:59;;;;;;;10.48;8.00;;;;;;;10.16;100.00;99039.78;4997353;28;20026;-50
2023/10/27 07:09:26;;;;;;;10.10;7.68;;;;;;;10.16;100.00;99042.44;5000857;28;20026;-50
2023/10/27 07:11:51;;;;;;;9.98;7.82;;;;;;;10.14;100.00;99039.13;5000667;28;20425;-49
2023/10/27 07:14:16;;;;;;;11.23;7.90;;;;;;;10.15;100.00;99042.59;5001415;28;20033;-49
2023/10/27 07:16:42;;;;;;;9.68;8.27;;;;;;;10.13;100.00;99045.41;5000985;28;20034;-48
2023/10/27 07:19:07;;;;;;;10.18;8.13;;;;;;;10.13;100.00;99048.06;5001465;28;20030;-49
2023/10/27 07:21:34;;;;;;;9.70;8.52;;;;;;;10.12;100.00;99062.31;4995984;28;20507;-49
2023/10/27 07:23:59;;;;;;;9.63;8.32;;;;;;;10.11;100.00;99054.53;5001161;28;20033;-49
2023/10/27 07:26:25;;;;;;;13.40;9.43;;;;;;;10.12;100.00;99056.19;4997324;28;20035;-48
2023/10/27 07:28:50;;;;;;;11.55;8.93;;;;;;;10.12;100.00;99062.31;4998919;28;20030;-49
2023/10/27 07:31:15;;;;;;;9.95;8.48;;;;;;;10.13;100.00;99058.69;4994590;28;20493;-48
2023/10/27 07:33:40;;;;;;;14.73;8.40;;;;;;;10.13;100.00;99068.47;4998946;28;20087;-48
2023/10/27 07:36:06;;;;;;;9.43;8.45;;;;;;;10.13;100.00;99063.16;4994256;28;20023;-49
2023/10/27 07:38:32;;;;;;;9.20;7.97;;;;;;;10.12;100.00;99072.91;4995621;28;20091;-49
2023/10/27 07:40:58;;;;;;;9.95;8.27;;;;;;;10.12;100.00;99075.56;4996743;28;20034;-48
2023/10/27 07:43:24;;;;;;;10.98;8.70;;;;;;;10.12;100.00;99072.91;5003356;28;20399;-48
2023/10/27 07:45:49;;;;;;;12.30;8.05;;;;;;;10.15;100.00;99074.44;4998622;28;20046;-48
2023/10/27 07:48:15;;;;;;;10.77;8.98;;;;;;;10.17;100.00;99075.09;4998044;28;20071;-48
2023/10/27 07:50:40;;;;;;;9.98;8.68;;;;;;;10.17;100.00;99078.63;4997608;28;20036;-49
2023/10/27 07:53:06;;;;;;;11.48;8.75;;;;;;;10.18;100.00;99084.75;4997794;28;20033;-50
2023/10/27 07:55:31;;;;;;;9.80;8.45;;;;;;;10.17;100.00;99081.25;4999869;28;20030;-48
2023/10/27 07:57:57;;;;;;;11.75;8.25;;;;;;;10.18;100.00;99080.25;4995517;28;20022;-48
2023/10/27 08:00:22;;;;;;;9.13;7.80;;;;;;;10.18;100.00;99093.53;5018369;28;20034;-49
2023/10/27 08:02:47;;;;;;;9.38;8.10;;;;;;;10.18;100.00;99093.53;4996018;28;20493;-49
2023/10/27 08:05:13;;;;;;;11.23;8.70;;;;;;;10.19;100.00;99089.03;4996124;28;20113;-49
2023/10/27 08:07:38;;;;;;;14.60;8.52;;;;;;;10.20;100.00;99093.38;5000625;28;20121;-52
2023/10/27 08:10:07;;;;;;;9.90;8.90;;;;;;;10.21;100.00;99092.38;4996499;28;20065;-48
2023/10/27 08:12:32;;;;;;;10.63;8.52;;;;;;;10.21;100.00;99087.06;5004956;28;20033;-50
2023/10/27 08:14:58;;;;;;;10.70;8.45;;;;;;;10.23;100.00;99073.66;4999486;28;20022;-50
2023/10/27 08:17:23;;;;;;;9.02;8.13;;;;;;;10.23;100.00;99090.41;5001113;28;20128;-49
2023/10/27 08:19:48;;;;;;;9.50;8.48;;;;;;;10.24;100.00;99092.06;5000192;28;20064;-48
2023/10/27 08:22:13;;;;;;;8.23;7.43;;;;;;;10.24;100.00;99100.03;4990666;28;20025;-49
2023/10/27 08:24:39;;;;;;;9.50;8.27;;;;;;;10.25;100.00;99098.19;4993261;28;20421;-48
2023/10/27 08:27:04;;;;;;;8.75;7.85;;;;;;;10.26;100.00;99100.69;4995633;28;20264;-48
2023/10/27 08:29:30;;;;;;;9.00;8.18;;;;;;;10.26;100.00;99108.66;4996335;28;20033;-49
2023/10/27 08:31:55;;;;;;;9.25;8.35;;;;;;;10.27;100.00;99112.13;4998933;28;20534;-48
2023/10/27 08:34:21;;;;;;;8.18;7.38;;;;;;;10.27;100.00;99118.25;5020872;28;20038;-48
2023/10/27 08:36:47;;;;;;;7.68;6.60;;;;;;;10.27;100.00;99115.59;4996451;28;20014;-48
2023/10/27 08:39:12;;;;;;;7.07;6.40;;;;;;;10.29;100.00;99112.81;4998179;28;20117;-48
2023/10/27 08:41:38;;;;;;;8.70;7.10;;;;;;;10.29;100.00;99116.31;5000817;28;20034;-48
2023/10/27 08:44:04;;;;;;;7.75;6.97;;;;;;;10.31;100.00;99118.81;4998212;28;20029;-49
2023/10/27 08:46:32;;;;;;;7.47;6.78;;;;;;;10.29;100.00;99115.47;4998749;28;20053;-51
2023/10/27 08:48:57;;;;;;;9.00;6.80;;;;;;;10.31;100.00;99119.63;4996906;28;20110;-48
2023/10/27 08:51:23;;;;;;;8.18;7.05;;;;;;;10.34;100.00;99119.34;4994801;28;20113;-50
2023/10/27 08:53:48;;;;;;;9.15;7.85;;;;;;;10.35;100.00;99120.16;5000406;28;20083;-50
2023/10/27 08:56:15;;;;;;;12.88;8.00;;;;;;;10.35;100.00;99117.53;4992003;28;20607;-48
2023/10/27 08:58:47;;;;;;;9.07;7.72;;;;;;;10.37;100.00;99123.50;4995212;28;20065;-48
2023/10/27 09:01:13;;;;;;;9.23;8.32;;;;;;;10.38;100.00;99111.91;4995932;28;20027;-48
2023/10/27 09:03:39;;;;;;;12.30;8.93;;;;;;;10.40;100.00;99117.06;4997894;28;20030;-49
2023/10/27 09:06:04;;;;;;;9.32;8.27;;;;;;;10.42;100.00;99120.38;4995666;28;20034;-51
2023/10/27 09:08:29;;;;;;;9.93;8.88;;;;;;;10.42;100.00;99129.16;5000527;28;20112;-49
2023/10/27 09:10:55;;;;;;;9.18;8.20;;;;;;;10.43;100.00;99127.34;4996872;28;20154;-51
2023/10/27 09:13:24;;;;;;;10.45;8.48;;;;;;;10.43;100.00;99125.53;4995507;28;20022;-52
2023/10/27 09:15:50;;;;;;;9.73;8.68;;;;;;;10.45;100.00;99128.84;4994076;28;20403;-49
2023/10/27 09:18:16;;;;;;;10.30;8.32;;;;;;;10.47;100.00;99128.69;4996706;28;20032;-48
2023/10/27 09:20:52;;;;;;;9.45;8.15;;;;;;;10.50;100.00;99125.72;4997324;28;20026;-49
2023/10/27 09:23:19;;;;;;;10.30;8.52;;;;;;;10.51;100.00;99127.38;5000871;28;20018;-49
2023/10/27 09:25:46;;;;;;;9.52;8.43;;;;;;;10.51;100.00;99122.91;4995508;28;20048;-49
2023/10/27 09:28:12;;;;;;;11.88;8.80;;;;;;;10.55;100.00;99126.88;4998332;28;20030;-48
2023/10/27 09:30:39;;;;;;;10.25;9.18;;;;;;;10.53;100.00;99123.56;4993795;28;20034;-48
2023/10/27 09:33:18;;;;;;;11.15;9.00;;;;;;;10.57;100.00;99117.94;4990530;28;20481;-49
2023/10/27 09:35:48;;;;;;;9.20;7.78;;;;;;;10.56;100.00;99117.13;4996553;28;20466;-49
2023/10/27 09:38:14;;;;;;;11.82;9.60;;;;;;;10.57;100.00;99126.72;4999508;28;20100;-47
2023/10/27 09:40:41;;;;;;;11.25;8.75;;;;;;;10.59;100.00;99130.09;4993635;28;20026;-48
2023/10/27 09:43:11;;;;;;;12.45;9.10;;;;;;;10.63;100.00;99134.06;5004392;28;20469;-47
2023/10/27 09:45:38;;;;;;;12.18;9.45;;;;;;;10.62;100.00;99120.94;4995017;28;20503;-51
2023/10/27 09:48:06;;;;;;;12.95;9.85;;;;;;;10.65;100.00;99131.25;4999276;28;20111;-49
2023/10/27 09:50:32;;;;;;;13.00;9.70;;;;;;;10.69;100.00;99127.28;5008865;28;20031;-49
2023/10/27 09:53:02;;;;;;;14.40;10.02;;;;;;;10.73;100.00;99125.97;5003108;28;20037;-47
2023/10/27 09:55:30;;;;;;;14.82;10.45;;;;;;;10.78;100.00;99117.53;4997547;28;20105;-49
2023/10/27 09:57:57;;;;;;;14.98;11.70;;;;;;;10.81;100.00;99123.34;4996871;28;20105;-48
2023/10/27 10:00:25;;;;;;;15.32;11.65;;;;;;;10.85;100.00;99124.66;5002787;28;20030;-47
2023/10/27 10:02:51;;;;;;;15.55;11.80;;;;;;;10.88;100.00;99126.19;4998893;28;20061;-48
2023/10/27 10:05:16;;;;;;;14.43;11.60;;;;;;;10.91;100.00;99120.56;5011206;28;20026;-49
2023/10/27 10:07:55;;;;;;;14.40;12.00;;;;;;;10.93;100.00;99134.50;5000929;28;20085;-49
2023/10/27 10:10:20;;;;;;;14.75;12.32;;;;;;;10.96;100.00;99134.19;4994551;28;20045;-47
2023/10/27 10:13:07;;;;;;;13.98;11.57;;;;;;;10.99;100.00;99140.97;4993353;28;20026;-47
2023/10/27 10:15:34;;;;;;;15.38;11.27;;;;;;;10.97;100.00;99149.09;5001519;28;20045;-47
2023/10/27 10:18:01;;;;;;;12.82;10.70;;;;;;;10.97;100.00;99135.81;4998598;28;20026;-47
2023/10/27 10:20:41;;;;;;;14.60;10.88;;;;;;;11.01;100.00;99146.97;4999176;28;20022;-47
2023/10/27 10:23:07;;;;;;;13.48;10.30;;;;;;;11.00;100.00;99138.16;4996013;28;20030;-48
2023/10/27 10:25:33;;;;;;;15.20;11.05;;;;;;;11.02;100.00;99140.66;4996355;28;20026;-47
2023/10/27 10:28:07;;;;;;;13.15;10.68;;;;;;;11.03;100.00;99143.16;4992901;28;20030;-48
2023/10/27 10:30:37;;;;;;;12.55;10.50;;;;;;;11.04;100.00;99144.81;4998610;28;20034;-47
2023/10/27 10:33:15;;;;;;;13.52;10.45;;;;;;;11.04;100.00;99146.63;4990901;28;20029;-47
2023/10/27 10:35:43;;;;;;;15.55;11.50;;;;;;;11.00;100.00;99143.47;4989931;28;20029;-49
2023/10/27 10:38:21;;;;;;;18.02;12.93;;;;;;;10.99;100.00;99143.63;4996584;28;20374;-47
2023/10/27 10:40:58;;;;;;;18.02;13.73;;;;;;;10.95;100.00;99153.75;4995923;28;20034;-47
2023/10/27 10:43:28;;;;;;;17.25;13.93;;;;;;;10.92;100.00;99146.09;4996411;28;20027;-49
2023/10/27 10:46:03;;;;;;;20.70;15.40;;;;;;;10.93;100.00;99147.78;4995750;28;20069;-46
2023/10/27 10:48:30;;;;;;;21.17;16.17;;;;;;;10.93;100.00;99145.94;4997614;28;20087;-46
2023/10/27 10:51:03;;;;;;;21.13;16.05;;;;;;;10.95;100.00;99147.63;4996716;28;20117;-47
2023/10/27 10:53:30;;;;;;;19.85;15.63;;;;;;;10.96;100.00;99144.81;4998457;28;20123;-47
2023/10/27 10:56:00;;;;;;;19.52;15.80;;;;;;;10.96;100.00;99143.94;4996765;28;20045;-47
2023/10/27 10:58:34;;;;;;;21.88;15.98;;;;;;;10.96;100.00;99149.25;5009559;28;20431;-47
2023/10/27 11:01:00;;;;;;;22.90;16.08;;;;;;;10.96;100.00;99136.84;4994327;28;20452;-47
2023/10/27 11:03:31;;;;;;;18.80;14.25;;;;;;;10.97;100.00;99140.31;4996105;28;20373;-46
2023/10/27 11:05:59;;;;;;;19.75;14.05;;;;;;;11.01;100.00;99136.34;4998108;28;20041;-49
2023/10/27 11:08:29;;;;;;;19.88;15.25;;;;;;;11.06;100.00;99139.34;4997150;28;20546;-46
2023/10/27 11:11:03;;;;;;;18.13;13.00;;;;;;;11.08;100.00;99140.84;4999240;28;20023;-46